Time;durP1;ratioP1;P1;durP2;ratioP2;P2;SDS_P1;SDS_P2;PMS_P1;PMS_P2;Temp;Humidity;BMP_temperature;BMP_pressure;BME280_temperature;BME280_humidity;BME280_pressure;Samples;Min_cycle;Max_cycle;Signal;HPM_P1;HPM_P2
2024/03/26 00:01:52;;;;;;;1.20;0.60;;;;;;;3.88;100.00;99220.35;86844;271;136099;-74
2024/03/26 00:03:52;;;;;;;1.10;0.70;;;;;;;3.88;100.00;99225.61;86886;271;22569;-75
2024/03/26 00:05:53;;;;;;;0.40;0.30;;;;;;;3.86;100.00;99220.25;86872;271;136577;-73
2024/03/26 00:07:54;;;;;;;0.80;0.60;;;;;;;3.85;100.00;99224.45;87022;276;23038;-74
2024/03/26 00:09:54;;;;;;;0.70;0.40;;;;;;;3.83;100.00;99226.00;86908;276;136018;-73
2024/03/26 00:11:55;;;;;;;0.40;0.40;;;;;;;3.84;100.00;99225.23;86923;268;23997;-75
2024/03/26 00:13:56;;;;;;;0.50;0.50;;;;;;;3.86;100.00;99221.34;86804;273;136470;-75
2024/03/26 00:15:57;;;;;;;1.20;0.50;;;;;;;3.84;100.00;99222.61;86909;273;24861;-74
2024/03/26 00:17:58;;;;;;;0.40;0.30;;;;;;;3.86;100.00;99220.28;86813;270;136843;-75
2024/03/26 00:19:58;;;;;;;1.00;0.60;;;;;;;3.87;100.00;99218.04;86995;280;24196;-76
2024/03/26 00:21:59;;;;;;;1.10;0.40;;;;;;;3.85;100.00;99217.36;86846;279;136085;-74
2024/03/26 00:24:00;;;;;;;2.00;0.30;;;;;;;3.83;100.00;99214.14;87004;273;24662;-74
2024/03/26 00:26:01;;;;;;;0.30;0.30;;;;;;;3.82;100.00;99221.63;88029;269;137439;-75
2024/03/26 00:28:03;;;;;;;0.50;0.30;;;;;;;3.79;100.00;99219.29;86916;276;22654;-75
2024/03/26 00:30:05;;;;;;;0.50;0.50;;;;;;;3.80;100.00;99222.48;87017;280;25322;-74
2024/03/26 00:32:06;;;;;;;0.20;0.20;;;;;;;3.81;100.00;99218.36;87372;273;136289;-75
2024/03/26 00:34:07;;;;;;;0.50;0.30;;;;;;;3.82;100.00;99220.00;86993;269;25303;-76
2024/03/26 00:36:08;;;;;;;0.40;0.30;;;;;;;3.83;100.00;99224.63;86914;266;138089;-75
2024/03/26 00:38:09;;;;;;;0.60;0.20;;;;;;;3.85;100.00;99223.56;87311;273;24138;-75
2024/03/26 00:40:11;;;;;;;0.60;0.30;;;;;;;3.84;100.00;99222.54;86946;277;136552;-71
2024/03/26 00:42:11;;;;;;;0.30;0.30;;;;;;;3.85;100.00;99224.54;87118;271;24543;-72
2024/03/26 00:44:12;;;;;;;0.60;0.20;;;;;;;3.87;100.00;99218.77;87670;267;137002;-72
2024/03/26 00:46:13;;;;;;;0.70;0.60;;;;;;;3.89;100.00;99218.36;88132;273;22584;-72
2024/03/26 00:48:13;;;;;;;0.20;0.20;;;;;;;3.91;100.00;99215.61;87789;274;136778;-73
2024/03/26 00:50:14;;;;;;;0.30;0.30;;;;;;;3.94;100.00;99216.02;87519;268;22540;-72
2024/03/26 00:52:15;;;;;;;0.80;0.20;;;;;;;3.96;100.00;99217.57;87766;276;137789;-73
2024/03/26 00:54:15;;;;;;;1.10;0.40;;;;;;;3.97;100.00;99218.60;87821;270;22564;-74
2024/03/26 00:56:16;;;;;;;0.60;0.20;;;;;;;3.96;100.00;99220.01;87795;280;136581;-72
2024/03/26 00:58:17;;;;;;;0.50;0.30;;;;;;;3.93;100.00;99224.60;87077;280;24093;-73
2024/03/26 01:00:17;;;;;;;0.30;0.20;;;;;;;3.91;100.00;99218.61;87060;280;136662;-75
2024/03/26 01:02:19;;;;;;;0.50;0.20;;;;;;;3.89;100.00;99221.79;87230;279;24010;-75
2024/03/26 01:04:19;;;;;;;0.60;0.20;;;;;;;3.90;100.00;99221.20;87259;269;136706;-74
2024/03/26 01:06:20;;;;;;;1.50;0.30;;;;;;;3.92;100.00;99216.48;86957;265;26278;-73
2024/03/26 01:08:21;;;;;;;1.00;0.20;;;;;;;3.93;100.00;99219.36;86824;273;138181;-74
2024/03/26 01:10:22;;;;;;;0.20;0.20;;;;;;;3.93;100.00;99224.73;86848;273;25116;-73
2024/03/26 01:12:22;;;;;;;0.20;0.20;;;;;;;3.90;100.00;99224.06;86806;280;137220;-73
2024/03/26 01:14:23;;;;;;;0.90;0.20;;;;;;;3.87;100.00;99222.80;86942;272;25557;-71
2024/03/26 01:16:24;;;;;;;0.50;0.10;;;;;;;3.85;100.00;99226.35;86777;273;136152;-73
2024/03/26 01:18:25;;;;;;;0.60;0.50;;;;;;;3.82;100.00;99222.68;86945;277;22571;-75
2024/03/26 01:20:25;;;;;;;0.40;0.20;;;;;;;3.81;100.00;99221.90;86908;277;137572;-76
2024/03/26 01:22:26;;;;;;;0.50;0.40;;;;;;;3.78;100.00;99224.15;86796;279;23034;-72
2024/03/26 01:24:27;;;;;;;0.40;0.20;;;;;;;3.76;100.00;99226.27;86897;272;136660;-71
2024/03/26 01:26:27;;;;;;;0.20;0.20;;;;;;;3.76;100.00;99224.42;86967;265;25233;-72
2024/03/26 01:28:28;;;;;;;0.50;0.20;;;;;;;3.74;100.00;99229.41;86768;273;137333;-74
2024/03/26 01:30:29;;;;;;;0.50;0.20;;;;;;;3.74;100.00;99227.06;86774;272;25199;-73
2024/03/26 01:32:29;;;;;;;0.20;0.20;;;;;;;3.77;100.00;99226.77;86856;269;137399;-73
2024/03/26 01:34:30;;;;;;;0.20;0.20;;;;;;;3.79;100.00;99224.02;86888;280;24170;-74
2024/03/26 01:36:31;;;;;;;0.30;0.30;;;;;;;3.81;100.00;99221.94;86790;268;137248;-72
2024/03/26 01:38:31;;;;;;;0.40;0.20;;;;;;;3.83;100.00;99222.70;86906;265;23744;-71
2024/03/26 01:40:32;;;;;;;0.50;0.40;;;;;;;3.82;100.00;99225.59;86846;280;136548;-72
2024/03/26 01:42:33;;;;;;;0.20;0.20;;;;;;;3.81;100.00;99227.34;87082;272;25156;-73
2024/03/26 01:44:34;;;;;;;0.50;0.20;;;;;;;3.81;100.00;99225.98;86975;279;136654;-73
2024/03/26 01:46:36;;;;;;;0.60;0.20;;;;;;;3.80;100.00;99230.40;87104;279;24058;-72
2024/03/26 01:48:37;;;;;;;0.40;0.10;;;;;;;3.76;100.00;99230.84;89209;276;137139;-71
2024/03/26 01:50:39;;;;;;;0.20;0.20;;;;;;;3.76;100.00;99237.23;87046;273;24030;-72
2024/03/26 01:52:42;;;;;;;2.90;0.90;;;;;;;3.73;100.00;99238.80;87022;273;137859;-71
2024/03/26 01:54:43;;;;;;;0.70;0.20;;;;;;;3.72;100.00;99244.63;88031;269;22635;-75
2024/03/26 01:56:46;;;;;;;1.20;0.40;;;;;;;3.71;100.00;99247.73;86960;279;136240;-73
2024/03/26 01:58:48;;;;;;;0.20;0.20;;;;;;;3.68;100.00;99249.13;87111;268;24193;-73
2024/03/26 02:00:51;;;;;;;1.20;0.40;;;;;;;3.67;100.00;99250.48;87247;272;137449;-74
2024/03/26 02:02:52;;;;;;;0.60;0.30;;;;;;;3.66;100.00;99253.61;87659;274;24020;-73
2024/03/26 02:04:52;;;;;;;0.60;0.20;;;;;;;3.67;100.00;99254.36;86840;278;136647;-72
2024/03/26 02:06:53;;;;;;;0.20;0.20;;;;;;;3.69;100.00;99262.14;86924;274;23939;-74
2024/03/26 02:08:57;;;;;;;0.20;0.20;;;;;;;3.73;100.00;99263.05;86902;269;136654;-75
2024/03/26 02:10:58;;;;;;;0.80;0.20;;;;;;;3.76;100.00;99268.63;87180;280;22574;-74
2024/03/26 02:12:59;;;;;;;0.30;0.30;;;;;;;3.79;100.00;99268.17;86938;272;136530;-74
2024/03/26 02:15:00;;;;;;;1.10;0.50;;;;;;;3.79;100.00;99267.39;87047;272;23739;-74
2024/03/26 02:17:00;;;;;;;0.20;0.10;;;;;;;3.78;100.00;99267.35;86845;281;136782;-75
2024/03/26 02:19:01;;;;;;;0.50;0.20;;;;;;;3.78;100.00;99261.39;86975;273;25220;-74
2024/03/26 02:21:02;;;;;;;0.20;0.10;;;;;;;3.79;100.00;99262.00;86859;277;136571;-76
2024/03/26 02:23:03;;;;;;;2.20;0.40;;;;;;;3.80;100.00;99258.73;86919;280;22588;-78
2024/03/26 02:25:04;;;;;;;0.20;0.20;;;;;;;3.81;100.00;99255.98;86867;271;136381;-72
2024/03/26 02:27:04;;;;;;;1.00;0.20;;;;;;;3.79;100.00;99255.02;86995;268;26320;-71
2024/03/26 02:29:05;;;;;;;1.50;0.10;;;;;;;3.77;100.00;99252.52;86955;273;136796;-72
2024/03/26 02:31:06;;;;;;;0.60;0.30;;;;;;;3.72;100.00;99256.23;87124;272;23590;-70
2024/03/26 02:33:06;;;;;;;1.10;0.20;;;;;;;3.73;100.00;99261.50;86946;272;136545;-71
2024/03/26 02:35:09;;;;;;;0.20;0.20;;;;;;;3.70;100.00;99263.19;86985;269;24052;-71
2024/03/26 02:37:10;;;;;;;0.40;0.20;;;;;;;3.68;100.00;99256.55;87044;271;136924;-71
2024/03/26 02:39:11;;;;;;;0.10;0.10;;;;;;;3.67;100.00;99260.86;87004;275;24001;-72
2024/03/26 02:41:12;;;;;;;0.20;0.20;;;;;;;3.70;100.00;99265.46;86847;271;136814;-71
2024/03/26 02:43:12;;;;;;;1.10;0.20;;;;;;;3.68;100.00;99266.02;87007;272;26220;-71
2024/03/26 02:45:14;;;;;;;0.60;0.20;;;;;;;3.68;100.00;99270.88;86828;281;136598;-72
2024/03/26 02:47:15;;;;;;;0.10;0.10;;;;;;;3.67;100.00;99268.04;87170;276;24048;-72
2024/03/26 02:49:15;;;;;;;0.60;0.20;;;;;;;3.69;100.00;99274.33;87128;270;136722;-72
2024/03/26 02:51:16;;;;;;;0.60;0.10;;;;;;;3.70;100.00;99276.63;87157;278;22558;-72
2024/03/26 02:53:23;;;;;;;0.20;0.20;;;;;;;3.71;100.00;99279.52;87086;274;137945;-72
2024/03/26 02:55:24;;;;;;;1.10;0.40;;;;;;;3.72;100.00;99285.45;87153;268;26057;-73
2024/03/26 02:57:24;;;;;;;0.10;0.10;;;;;;;3.74;100.00;99287.88;86995;275;138380;-73
2024/03/26 02:59:25;;;;;;;1.10;0.20;;;;;;;3.75;100.00;99291.83;87051;274;22588;-73
2024/03/26 03:01:26;;;;;;;0.70;0.10;;;;;;;3.76;100.00;99296.91;86758;265;136186;-73
2024/03/26 03:03:26;;;;;;;0.60;0.20;;;;;;;3.75;100.00;99298.52;86927;268;25089;-75
2024/03/26 03:05:27;;;;;;;0.70;0.10;;;;;;;3.75;100.00;99299.70;86873;270;138273;-70
2024/03/26 03:07:28;;;;;;;1.70;0.20;;;;;;;3.76;100.00;99300.83;87098;269;22572;-74
2024/03/26 03:09:28;;;;;;;0.40;0.20;;;;;;;3.76;100.00;99310.80;87002;268;136357;-74
2024/03/26 03:11:29;;;;;;;0.40;0.10;;;;;;;3.79;100.00;99313.70;87116;275;22563;-73
2024/03/26 03:13:30;;;;;;;0.20;0.10;;;;;;;3.82;100.00;99313.00;86936;279;136250;-75
2024/03/26 03:15:31;;;;;;;0.60;0.20;;;;;;;3.86;100.00;99317.46;86938;273;22642;-75
2024/03/26 03:17:32;;;;;;;0.30;0.30;;;;;;;3.88;100.00;99320.55;86893;273;136194;-78
2024/03/26 03:19:32;;;;;;;0.40;0.10;;;;;;;3.90;100.00;99325.10;87089;272;22598;-77
2024/03/26 03:21:33;;;;;;;0.10;0.10;;;;;;;3.92;100.00;99326.80;86944;272;136625;-77
2024/03/26 03:23:33;;;;;;;0.20;0.20;;;;;;;3.93;100.00;99332.54;87002;273;23748;-77
2024/03/26 03:25:34;;;;;;;0.40;0.20;;;;;;;3.92;100.00;99336.79;87059;276;136812;-76
2024/03/26 03:27:35;;;;;;;0.30;0.30;;;;;;;3.91;100.00;99338.17;87080;280;22555;-76
2024/03/26 03:29:36;;;;;;;0.20;0.10;;;;;;;3.90;100.00;99341.96;87080;289;136235;-76
2024/03/26 03:31:36;;;;;;;0.40;0.10;;;;;;;3.87;100.00;99344.38;87134;273;22579;-75
2024/03/26 03:33:37;;;;;;;0.20;0.20;;;;;;;3.85;100.00;99351.27;86962;277;136221;-75
2024/03/26 03:35:39;;;;;;;0.70;0.30;;;;;;;3.85;100.00;99346.56;87000;276;27941;-77
2024/03/26 03:37:39;;;;;;;0.20;0.10;;;;;;;3.86;100.00;99352.78;86412;273;647149;-74
2024/03/26 03:39:40;;;;;;;0.20;0.10;;;;;;;3.88;100.00;99356.94;87103;273;23605;-76
2024/03/26 03:41:41;;;;;;;1.20;0.10;;;;;;;3.91;100.00;99354.00;87066;271;136321;-76
2024/03/26 03:43:42;;;;;;;0.50;0.30;;;;;;;3.93;100.00;99350.63;87025;268;22767;-75
2024/03/26 03:45:42;;;;;;;0.70;0.10;;;;;;;3.94;100.00;99348.71;87024;268;140505;-78
2024/03/26 03:47:43;;;;;;;0.20;0.20;;;;;;;3.95;100.00;99349.57;87104;271;24255;-75
2024/03/26 03:49:44;;;;;;;1.10;0.10;;;;;;;3.94;100.00;99350.83;86978;269;136746;-77
2024/03/26 03:51:44;;;;;;;0.80;0.10;;;;;;;3.95;100.00;99346.67;87230;268;23681;-76
2024/03/26 03:53:45;;;;;;;0.40;0.20;;;;;;;3.95;100.00;99348.12;86980;276;141496;-77
2024/03/26 03:55:46;;;;;;;0.10;0.10;;;;;;;3.94;100.00;99351.67;87102;268;22646;-75
2024/03/26 03:57:46;;;;;;;0.10;0.10;;;;;;;3.93;100.00;99356.09;87016;269;136752;-76
2024/03/26 03:59:47;;;;;;;0.40;0.10;;;;;;;3.91;100.00;99365.20;87096;277;24415;-76
2024/03/26 04:01:48;;;;;;;0.30;0.10;;;;;;;3.91;100.00;99369.30;87006;279;136912;-75
2024/03/26 04:03:49;;;;;;;2.30;0.10;;;;;;;3.92;100.00;99374.96;87080;264;25092;-76
2024/03/26 04:05:50;;;;;;;0.10;0.10;;;;;;;3.94;100.00;99378.84;86989;280;136908;-78
2024/03/26 04:07:50;;;;;;;0.60;0.20;;;;;;;3.99;100.00;99376.84;87046;280;22588;-79
2024/03/26 04:09:52;;;;;;;0.60;0.10;;;;;;;4.01;100.00;99375.02;87119;271;136076;-74
2024/03/26 04:11:53;;;;;;;0.30;0.10;;;;;;;3.98;100.00;99378.81;87255;268;22683;-75
2024/03/26 04:13:54;;;;;;;0.20;0.10;;;;;;;3.99;100.00;99384.11;87079;264;135888;-77
2024/03/26 04:15:55;;;;;;;0.40;0.10;;;;;;;3.99;100.00;99384.80;87224;268;22576;-79
2024/03/26 04:17:55;;;;;;;0.50;0.10;;;;;;;4.00;100.00;99391.31;86957;272;135987;-76
2024/03/26 04:19:56;;;;;;;2.80;0.10;;;;;;;4.02;100.00;99390.74;87111;267;22597;-76
2024/03/26 04:21:57;;;;;;;0.40;0.20;;;;;;;4.05;100.00;99398.13;86939;279;136081;-76
2024/03/26 04:23:58;;;;;;;1.30;0.30;;;;;;;4.07;100.00;99402.99;87113;272;25092;-78
2024/03/26 04:25:58;;;;;;;0.30;0.20;;;;;;;4.07;100.00;99409.45;87532;280;136721;-76
2024/03/26 04:27:59;;;;;;;0.50;0.20;;;;;;;4.10;100.00;99409.35;87400;280;22580;-77
2024/03/26 04:30:00;;;;;;;0.20;0.10;;;;;;;4.10;100.00;99416.01;87344;271;136543;-78
2024/03/26 04:32:00;;;;;;;1.10;0.10;;;;;;;4.10;100.00;99420.59;87756;275;22557;-77
2024/03/26 04:34:01;;;;;;;0.10;0.10;;;;;;;4.10;100.00;99425.54;88247;268;136268;-76
2024/03/26 04:36:02;;;;;;;0.50;0.10;;;;;;;4.11;100.00;99427.77;88125;268;22589;-76
2024/03/26 04:38:03;;;;;;;0.20;0.10;;;;;;;4.14;100.00;99433.80;87587;272;23408;-76
2024/03/26 04:40:05;;;;;;;1.10;0.20;;;;;;;4.13;100.00;99435.45;87518;280;136964;-77
2024/03/26 04:42:06;;;;;;;0.40;0.20;;;;;;;4.10;100.00;99435.56;88096;271;22540;-77
2024/03/26 04:44:07;;;;;;;0.50;0.50;;;;;;;4.09;100.00;99445.71;87408;271;136711;-75
2024/03/26 04:46:07;;;;;;;0.20;0.10;;;;;;;4.09;100.00;99449.17;87756;272;22525;-76
2024/03/26 04:48:08;;;;;;;0.20;0.10;;;;;;;4.10;100.00;99454.21;87670;279;137491;-76
2024/03/26 04:50:09;;;;;;;2.20;0.20;;;;;;;4.08;100.00;99456.48;87604;279;22587;-77
2024/03/26 04:52:10;;;;;;;0.20;0.10;;;;;;;4.09;100.00;99461.70;87230;279;137760;-73
2024/03/26 04:54:10;;;;;;;0.60;0.20;;;;;;;4.07;100.00;99463.85;87198;273;24362;-78
2024/03/26 04:56:11;;;;;;;2.30;0.30;;;;;;;4.07;100.00;99470.11;87208;271;137825;-75
2024/03/26 04:58:12;;;;;;;0.20;0.10;;;;;;;4.06;100.00;99468.66;87171;268;22562;-77
2024/03/26 05:00:14;;;;;;;1.60;0.70;;;;;;;4.07;100.00;99474.20;86919;272;136968;-77
2024/03/26 05:02:14;;;;;;;0.20;0.10;;;;;;;4.08;100.00;99474.59;87216;267;22591;-77
2024/03/26 05:04:15;;;;;;;0.70;0.10;;;;;;;4.09;100.00;99473.93;86828;274;136528;-76
2024/03/26 05:06:15;;;;;;;0.10;0.10;;;;;;;4.14;100.00;99478.64;87055;272;22556;-77
2024/03/26 05:08:16;;;;;;;0.90;0.50;;;;;;;4.15;100.00;99481.14;87007;279;136154;-76
2024/03/26 05:10:17;;;;;;;0.90;0.20;;;;;;;4.12;100.00;99486.88;87317;279;23019;-76
2024/03/26 05:12:19;;;;;;;0.30;0.20;;;;;;;4.12;100.00;99488.99;87047;271;137920;-73
2024/03/26 05:14:19;;;;;;;1.00;0.20;;;;;;;4.08;100.00;99489.89;87104;280;22652;-75
2024/03/26 05:16:20;;;;;;;0.60;0.20;;;;;;;4.06;100.00;99488.58;86859;277;138067;-74
2024/03/26 05:18:21;;;;;;;0.20;0.10;;;;;;;4.06;100.00;99494.84;87093;271;22586;-71
2024/03/26 05:20:22;;;;;;;0.80;0.20;;;;;;;4.08;100.00;99495.40;87049;268;137108;-73
2024/03/26 05:22:23;;;;;;;2.10;0.20;;;;;;;4.08;100.00;99498.70;87015;268;22568;-75
2024/03/26 05:24:23;;;;;;;2.10;0.20;;;;;;;4.03;100.00;99497.52;86654;274;136962;-71
2024/03/26 05:26:24;;;;;;;0.30;0.30;;;;;;;4.04;100.00;99501.46;86972;280;22701;-74
2024/03/26 05:28:24;;;;;;;0.50;0.50;;;;;;;4.08;100.00;99502.13;86933;271;138272;-74
2024/03/26 05:30:25;;;;;;;1.00;0.50;;;;;;;4.15;100.00;99506.77;87093;270;25294;-79
2024/03/26 05:32:26;;;;;;;0.30;0.20;;;;;;;4.21;100.00;99505.83;87372;266;136385;-72
2024/03/26 05:34:27;;;;;;;0.40;0.20;;;;;;;4.21;100.00;99510.19;87039;272;22593;-73
2024/03/26 05:36:28;;;;;;;0.90;0.20;;;;;;;4.22;100.00;99510.02;86839;279;136501;-78
2024/03/26 05:38:29;;;;;;;0.10;0.10;;;;;;;4.21;100.00;99512.13;86956;268;25208;-74
2024/03/26 05:40:30;;;;;;;2.50;0.60;;;;;;;4.19;100.00;99514.47;86939;272;136536;-73
2024/03/26 05:42:31;;;;;;;0.40;0.10;;;;;;;4.18;100.00;99518.80;87043;271;22570;-73
2024/03/26 05:44:31;;;;;;;1.00;0.90;;;;;;;4.16;100.00;99520.51;86909;272;136791;-73
2024/03/26 05:46:33;;;;;;;0.60;0.40;;;;;;;4.18;100.00;99523.71;87015;276;22556;-72
2024/03/26 05:48:34;;;;;;;0.80;0.20;;;;;;;4.21;100.00;99528.84;86764;280;136484;-72
2024/03/26 05:50:35;;;;;;;1.60;0.20;;;;;;;4.23;100.00;99529.97;87065;271;22586;-73
2024/03/26 05:52:35;;;;;;;0.70;0.20;;;;;;;4.25;100.00;99531.15;86739;276;138145;-74
2024/03/26 05:54:36;;;;;;;3.20;0.20;;;;;;;4.29;100.00;99528.67;87104;276;25213;-72
2024/03/26 05:56:37;;;;;;;0.20;0.20;;;;;;;4.32;100.00;99532.02;87058;271;136772;-74
2024/03/26 05:58:37;;;;;;;0.70;0.20;;;;;;;4.36;100.00;99536.48;87069;272;22595;-73
2024/03/26 06:00:38;;;;;;;2.50;0.30;;;;;;;4.39;100.00;99539.89;86946;276;136188;-73
2024/03/26 06:02:39;;;;;;;0.40;0.20;;;;;;;4.40;100.00;99540.79;87030;276;23994;-74
2024/03/26 06:04:40;;;;;;;2.20;0.20;;;;;;;4.42;100.00;99540.86;86992;272;137822;-74
2024/03/26 06:06:41;;;;;;;0.50;0.20;;;;;;;4.43;100.00;99541.66;87056;279;22642;-75
2024/03/26 06:08:41;;;;;;;1.90;0.20;;;;;;;4.46;100.00;99545.23;87012;272;136378;-75
2024/03/26 06:10:42;;;;;;;0.60;0.20;;;;;;;4.46;100.00;99545.92;87164;268;22584;-74
2024/03/26 06:12:43;;;;;;;5.30;0.40;;;;;;;4.46;100.00;99548.23;86982;273;137198;-74
2024/03/26 06:14:44;;;;;;;0.40;0.20;;;;;;;4.47;100.00;99550.53;87183;267;22769;-74
2024/03/26 06:16:44;;;;;;;2.00;0.40;;;;;;;4.53;100.00;99554.42;86983;268;136713;-75
2024/03/26 06:18:45;;;;;;;0.10;0.10;;;;;;;4.58;100.00;99557.84;87097;272;22667;-75
2024/03/26 06:20:46;;;;;;;0.10;0.10;;;;;;;4.62;100.00;99560.52;87023;268;136370;-76
2024/03/26 06:22:46;;;;;;;0.20;0.10;;;;;;;4.65;100.00;99563.23;87398;280;23740;-80
2024/03/26 06:24:47;;;;;;;1.10;0.50;;;;;;;4.67;100.00;99564.21;87275;273;138337;-77
2024/03/26 06:26:48;;;;;;;2.10;0.10;;;;;;;4.70;100.00;99564.48;87442;272;26262;-83
2024/03/26 06:28:49;;;;;;;0.80;0.20;;;;;;;4.74;100.00;99567.17;88776;276;136414;-74
2024/03/26 06:30:50;;;;;;;0.70;0.20;;;;;;;4.81;100.00;99560.48;89654;263;22606;-74
2024/03/26 06:32:51;;;;;;;0.70;0.20;;;;;;;4.88;100.00;99565.64;89820;268;136024;-76
2024/03/26 06:34:51;;;;;;;0.50;0.20;;;;;;;4.94;100.00;99564.44;89728;273;23972;-73
2024/03/26 06:36:52;;;;;;;0.30;0.30;;;;;;;5.00;100.00;99566.55;89354;268;136759;-75
2024/03/26 06:38:53;;;;;;;0.40;0.20;;;;;;;5.07;100.00;99565.50;89038;268;22666;-78
2024/03/26 06:40:54;;;;;;;0.20;0.20;;;;;;;5.13;100.00;99569.95;88462;271;137358;-79
2024/03/26 06:42:54;;;;;;;1.20;0.30;;;;;;;5.17;100.00;99577.35;88561;271;22581;-78
2024/03/26 06:44:55;;;;;;;1.80;0.20;;;;;;;5.21;100.00;99571.82;87507;279;137345;-74
2024/03/26 06:46:56;;;;;;;0.70;0.10;;;;;;;5.23;100.00;99572.30;87100;278;22560;-74
2024/03/26 06:48:56;;;;;;;0.60;0.20;;;;;;;5.24;100.00;99577.59;87007;268;138057;-74
2024/03/26 06:50:57;;;;;;;0.20;0.10;;;;;;;5.25;100.00;99573.32;87043;276;25252;-74
2024/03/26 06:52:59;;;;;;;0.40;0.20;;;;;;;5.27;100.00;99579.42;86984;268;136474;-74
2024/03/26 06:54:59;;;;;;;0.70;0.20;;;;;;;5.31;100.00;99582.70;87288;275;22582;-76
2024/03/26 06:57:01;;;;;;;1.10;0.80;;;;;;;5.34;100.00;99581.02;87044;279;137075;-76
2024/03/26 06:59:01;;;;;;;3.20;0.20;;;;;;;5.35;100.00;99579.81;87081;272;24046;-76
2024/03/26 07:01:02;;;;;;;1.40;0.40;;;;;;;5.43;100.00;99581.71;86905;268;136653;-76
2024/03/26 07:03:03;;;;;;;0.90;0.20;;;;;;;5.51;100.00;99583.50;87179;266;23453;-75
2024/03/26 07:05:05;;;;;;;0.90;0.30;;;;;;;5.60;100.00;99584.50;87092;271;136775;-78
2024/03/26 07:07:06;;;;;;;1.40;0.20;;;;;;;5.69;100.00;99586.53;87323;268;22541;-75
2024/03/26 07:09:07;;;;;;;0.20;0.10;;;;;;;5.72;100.00;99589.48;86885;271;137280;-77
2024/03/26 07:11:08;;;;;;;1.30;0.20;;;;;;;5.78;100.00;99593.48;86946;273;24109;-73
2024/03/26 07:13:10;;;;;;;0.30;0.10;;;;;;;5.80;100.00;99602.02;86897;272;136596;-79
2024/03/26 07:15:10;;;;;;;2.00;0.10;;;;;;;5.82;100.00;99598.27;87083;272;23944;-77
2024/03/26 07:17:11;;;;;;;0.50;0.10;;;;;;;5.84;100.00;99606.83;86910;277;136688;-74
2024/03/26 07:19:13;;;;;;;0.40;0.20;;;;;;;5.81;100.00;99609.98;87179;271;26075;-78
2024/03/26 07:21:14;;;;;;;1.90;0.20;;;;;;;5.84;100.00;99610.70;87019;271;137485;-79
2024/03/26 07:23:15;;;;;;;0.50;0.20;;;;;;;5.88;100.00;99613.12;87044;272;23356;-77
2024/03/26 07:25:15;;;;;;;4.70;0.30;;;;;;;5.95;100.00;99616.39;87190;267;136737;-80
2024/03/26 07:27:17;;;;;;;0.50;0.20;;;;;;;6.02;100.00;99622.21;87062;263;22643;-76
2024/03/26 07:29:18;;;;;;;0.20;0.20;;;;;;;6.09;100.00;99621.89;87000;279;136979;-78
2024/03/26 07:31:19;;;;;;;0.80;0.10;;;;;;;6.11;100.00;99623.53;87140;276;23972;-75
2024/03/26 07:33:19;;;;;;;2.90;0.40;;;;;;;6.17;100.00;99625.34;86955;274;137031;-81
2024/03/26 07:35:20;;;;;;;0.50;0.40;;;;;;;6.22;100.00;99622.30;87122;272;24004;-77
2024/03/26 07:39:47;;;;;;;2.00;0.10;;;;;;;6.22;100.00;99631.86;84960;296;603502;-75
2024/03/26 07:41:48;;;;;;;0.80;0.30;;;;;;;6.20;100.00;99629.06;86664;281;135876;-77
2024/03/26 07:43:49;;;;;;;1.10;0.20;;;;;;;6.23;100.00;99629.92;86719;277;24095;-76
2024/03/26 07:45:50;;;;;;;0.30;0.20;;;;;;;6.35;100.00;99632.26;87014;277;135609;-80
2024/03/26 07:47:50;;;;;;;0.20;0.10;;;;;;;6.47;100.00;99630.73;86532;278;25360;-80
2024/03/26 07:49:51;;;;;;;0.60;0.30;;;;;;;6.57;100.00;99634.33;86911;284;135478;-78
2024/03/26 07:51:52;;;;;;;6.70;0.40;;;;;;;6.67;100.00;99639.81;87109;277;22581;-83
2024/03/26 07:53:53;;;;;;;2.30;0.70;;;;;;;6.76;100.00;99639.05;86330;281;859142;-73
2024/03/26 07:55:54;;;;;;;0.90;0.20;;;;;;;6.84;100.00;99637.79;87159;272;22590;-78
2024/03/26 07:57:55;;;;;;;0.70;0.20;;;;;;;6.94;100.00;99643.42;87018;292;135060;-76
2024/03/26 07:59:55;;;;;;;1.30;0.10;;;;;;;7.00;100.00;99644.58;86728;279;22799;-75
2024/03/26 08:01:56;;;;;;;0.50;0.10;;;;;;;7.04;100.00;99646.79;87184;276;135320;-66
2024/03/26 08:03:57;;;;;;;1.80;0.30;;;;;;;7.09;100.00;99645.71;86697;280;25426;-72
2024/03/26 08:05:58;;;;;;;0.30;0.20;;;;;;;7.12;100.00;99650.41;86523;276;135733;-68
2024/03/26 08:07:58;;;;;;;2.10;0.30;;;;;;;7.16;100.00;99650.23;86745;276;25080;-66
2024/03/26 08:10:00;;;;;;;1.90;0.20;;;;;;;7.18;100.00;99653.44;86855;267;136681;-67
2024/03/26 08:12:00;;;;;;;1.00;0.10;;;;;;;7.17;100.00;99652.23;86883;279;22834;-69
2024/03/26 08:14:02;;;;;;;0.40;0.10;;;;;;;7.17;100.00;99651.95;86835;280;135222;-72
2024/03/26 08:16:03;;;;;;;0.40;0.30;;;;;;;7.19;100.00;99653.11;87060;270;135998;-72
2024/03/26 08:18:03;;;;;;;0.50;0.20;;;;;;;7.21;100.00;99655.15;87557;279;25185;-73
2024/03/26 08:20:09;;;;;;;1.40;0.20;;;;;;;7.23;100.00;99655.45;87211;279;135819;-70
2024/03/26 08:22:11;;;;;;;2.90;0.20;;;;;;;7.27;100.00;99657.17;87299;271;22588;-70
2024/03/26 08:24:12;;;;;;;0.40;0.10;;;;;;;7.32;100.00;99657.21;87040;271;136048;-70
2024/03/26 08:26:13;;;;;;;1.20;0.20;;;;;;;7.39;100.00;99661.02;87362;278;22512;-85
2024/03/26 08:28:13;;;;;;;0.50;0.10;;;;;;;7.45;100.00;99656.69;87590;278;136209;-76
2024/03/26 08:30:14;;;;;;;0.30;0.10;;;;;;;7.47;100.00;99664.67;87501;275;25012;-81
2024/03/26 08:32:15;;;;;;;0.40;0.10;;;;;;;7.49;100.00;99665.21;87498;270;135496;-73
2024/03/26 08:34:16;;;;;;;3.60;2.00;;;;;;;7.52;100.00;99667.05;87608;268;22566;-74
2024/03/26 08:36:16;;;;;;;6.60;0.40;;;;;;;7.57;100.00;99663.00;87504;270;135638;-77
2024/03/26 08:38:17;;;;;;;0.80;0.40;;;;;;;7.61;100.00;99661.98;87571;271;22595;-73
2024/03/26 08:40:19;;;;;;;0.20;0.10;;;;;;;7.68;100.00;99666.05;87592;271;135504;-76
2024/03/26 08:42:20;;;;;;;0.40;0.20;;;;;;;7.74;100.00;99665.31;87699;270;23255;-73
2024/03/26 08:44:20;;;;;;;1.20;0.30;;;;;;;7.81;100.00;99663.23;87400;276;135479;-72
2024/03/26 08:46:21;;;;;;;0.80;0.20;;;;;;;7.85;100.00;99670.67;87570;270;25129;-73
2024/03/26 08:48:21;;;;;;;0.90;0.20;;;;;;;7.88;100.00;99664.63;87399;267;135146;-73
2024/03/26 08:50:23;;;;;;;3.40;0.30;;;;;;;7.89;100.00;99659.23;87343;272;24200;-74
2024/03/26 08:52:24;;;;;;;0.30;0.20;;;;;;;7.89;100.00;99655.16;87334;279;135522;-72
2024/03/26 08:54:25;;;;;;;1.60;0.20;;;;;;;7.86;100.00;99653.86;87647;278;25275;-73
2024/03/26 08:56:26;;;;;;;1.20;0.30;;;;;;;7.89;100.00;99650.46;87111;275;135696;-72
2024/03/26 08:58:27;;;;;;;0.10;0.10;;;;;;;8.01;100.00;99658.60;87010;268;24032;-71
2024/03/26 09:00:28;;;;;;;0.40;0.20;;;;;;;8.12;100.00;99656.78;87811;279;135059;-69
2024/03/26 09:02:29;;;;;;;0.60;0.10;;;;;;;8.20;100.00;99652.42;87036;271;22551;-68
2024/03/26 09:04:30;;;;;;;1.20;0.20;;;;;;;8.24;100.00;99659.92;86897;271;135244;-70
2024/03/26 09:06:31;;;;;;;0.40;0.10;;;;;;;8.26;100.00;99659.50;87445;271;24148;-74
2024/03/26 09:08:33;;;;;;;2.40;0.10;;;;;;;8.28;100.00;99657.72;87308;279;136317;-72
2024/03/26 09:10:34;;;;;;;1.50;0.20;;;;;;;8.36;100.00;99653.71;87143;268;24119;-72
2024/03/26 09:12:38;;;;;;;0.70;0.20;;;;;;;8.46;100.00;99660.43;87331;273;135365;-69
2024/03/26 09:14:39;;;;;;;1.00;0.20;;;;;;;8.53;100.00;99662.38;87492;280;22640;-73
2024/03/26 09:16:40;;;;;;;0.40;0.20;;;;;;;8.54;100.00;99656.11;87340;277;135816;-72
2024/03/26 09:18:41;;;;;;;0.50;0.10;;;;;;;8.57;100.00;99656.50;87545;273;24051;-72
2024/03/26 09:20:42;;;;;;;1.20;0.40;;;;;;;8.55;100.00;99659.81;87473;267;136134;-72
2024/03/26 09:22:43;;;;;;;1.50;0.40;;;;;;;8.50;100.00;99658.92;87579;280;24058;-73
2024/03/26 09:24:43;;;;;;;3.50;0.40;;;;;;;8.42;100.00;99660.32;87440;278;136263;-74
2024/03/26 09:26:45;;;;;;;1.10;0.30;;;;;;;8.35;100.00;99658.13;87501;271;24754;-73
2024/03/26 09:28:45;;;;;;;0.90;0.10;;;;;;;8.22;100.00;99652.31;87373;277;135804;-72
2024/03/26 09:30:51;;;;;;;2.10;0.10;;;;;;;8.19;100.00;99657.64;87502;271;22579;-71
2024/03/26 09:32:53;;;;;;;0.90;0.10;;;;;;;8.22;100.00;99661.30;87209;282;135547;-70
2024/03/26 09:34:54;;;;;;;0.30;0.30;;;;;;;8.31;100.00;99659.21;87393;280;25191;-70